Time;durP1;ratioP1;P1;durP2;ratioP2;P2;SDS_P1;SDS_P2;PMS_P1;PMS_P2;Temp;Humidity;BMP_temperature;BMP_pressure;BME280_temperature;BME280_humidity;BME280_pressure;Samples;Min_cycle;Max_cycle;Signal;HPM_P1;HPM_P2
2021/04/04 00:00:23;;;;;;;23.73;6.63;;;;;5.10;102341.00;;;;9679830;30;20199;-79
2021/04/04 00:05:25;;;;;;;22.60;6.77;;;;;5.20;102331.00;;;;9666181;30;20204;-78
2021/04/04 00:10:27;;;;;;;16.80;6.57;;;;;5.30;102319.00;;;;9707568;30;20238;-79
2021/04/04 00:15:28;;;;;;;18.00;7.47;;;;;5.30;102321.00;;;;9676184;30;20223;-78
2021/04/04 00:20:30;;;;;;;24.23;6.90;;;;;5.40;102330.00;;;;9692405;30;20565;-78
2021/04/04 00:25:31;;;;;;;14.37;5.63;;;;;5.40;102329.00;;;;9683810;30;20236;-78
2021/04/04 00:30:32;;;;;;;24.00;7.40;;;;;5.50;102314.00;;;;9701548;30;20207;-78
2021/04/04 00:35:34;;;;;;;23.07;6.83;;;;;5.50;102319.00;;;;9663265;30;20704;-78
2021/04/04 00:40:37;;;;;;;20.53;7.10;;;;;5.60;102311.00;;;;9690916;30;20595;-78
2021/04/04 00:45:39;;;;;;;25.63;7.40;;;;;5.60;102314.00;;;;9688613;30;20211;-78
2021/04/04 00:50:41;;;;;;;15.83;6.53;;;;;5.60;102311.00;;;;9686179;30;20893;-78
2021/04/04 00:55:44;;;;;;;16.10;5.73;;;;;5.60;102300.00;;;;9686915;30;20258;-78
2021/04/04 01:00:45;;;;;;;16.30;6.13;;;;;5.70;102303.00;;;;9693954;30;20326;-78
2021/04/04 01:05:50;;;;;;;25.10;6.97;;;;;5.70;102301.00;;;;9682185;30;20203;-79
2021/04/04 01:10:52;;;;;;;23.30;6.67;;;;;5.70;102302.00;;;;9690843;30;20207;-78
2021/04/04 01:16:01;;;;;;;15.47;5.87;;;;;5.70;102294.00;;;;9694149;30;20216;-79
2021/04/04 01:21:37;;;;;;;21.77;6.37;;;;;5.80;102294.00;;;;9697160;30;20196;-78
2021/04/04 01:26:38;;;;;;;19.43;6.43;;;;;5.80;102297.00;;;;9685177;30;20240;-78
2021/04/04 01:31:42;;;;;;;19.17;5.90;;;;;5.80;102301.00;;;;9682297;30;20228;-78
2021/04/04 01:36:47;;;;;;;22.00;6.83;;;;;5.80;102292.00;;;;9704776;30;20216;-78
2021/04/04 01:41:50;;;;;;;24.80;6.90;;;;;5.80;102294.00;;;;9690685;30;20290;-78
2021/04/04 01:46:55;;;;;;;16.83;6.80;;;;;5.80;102294.00;;;;9686632;30;20216;-78
2021/04/04 01:51:57;;;;;;;21.67;6.00;;;;;5.80;102296.00;;;;9694222;30;20293;-78
2021/04/04 01:56:59;;;;;;;14.37;5.87;;;;;5.80;102295.00;;;;9692160;30;20207;-78
2021/04/04 02:02:02;;;;;;;19.53;6.00;;;;;5.80;102289.00;;;;9685257;30;20208;-78
2021/04/04 02:07:05;;;;;;;15.23;5.27;;;;;5.80;102284.00;;;;9710239;30;20262;-78
2021/04/04 02:12:07;;;;;;;19.40;6.63;;;;;5.80;102286.00;;;;9689540;30;20254;-78
2021/04/04 02:17:09;;;;;;;21.47;6.00;;;;;5.80;102277.00;;;;9685872;30;20248;-78
2021/04/04 02:22:11;;;;;;;15.63;5.83;;;;;5.80;102281.00;;;;9665839;30;20569;-78
2021/04/04 02:27:12;;;;;;;20.37;5.70;;;;;5.80;102280.00;;;;9703977;30;20236;-78
2021/04/04 02:32:15;;;;;;;18.70;5.63;;;;;5.80;102285.00;;;;9687215;30;20681;-78
2021/04/04 02:37:17;;;;;;;19.03;5.47;;;;;5.70;102270.00;;;;9698827;30;20255;-78
2021/04/04 02:42:23;;;;;;;17.90;5.37;;;;;5.70;102262.00;;;;9684331;30;20738;-79
2021/04/04 02:47:31;;;;;;;21.97;5.60;;;;;5.80;102260.00;;;;9712645;30;20207;-78
2021/04/04 02:52:38;;;;;;;21.73;4.93;;;;;5.70;102259.00;;;;9695048;30;20327;-79
2021/04/04 02:57:40;;;;;;;20.53;5.70;;;;;5.80;102259.00;;;;9701533;30;20298;-78
2021/04/04 03:02:42;;;;;;;15.23;4.93;;;;;5.70;102262.00;;;;9691039;30;20233;-78
2021/04/04 03:07:44;;;;;;;19.87;5.03;;;;;5.70;102256.00;;;;9691191;30;20268;-79
2021/04/04 03:12:49;;;;;;;18.50;6.07;;;;;5.70;102255.00;;;;9680098;30;20235;-79
2021/04/04 03:17:51;;;;;;;17.83;6.03;;;;;5.70;102250.00;;;;9700058;30;20204;-79
2021/04/04 03:22:55;;;;;;;14.77;5.17;;;;;5.70;102241.00;;;;9682043;30;20211;-79
2021/04/04 03:27:59;;;;;;;14.20;5.60;;;;;5.80;102235.00;;;;9672324;30;20266;-78
2021/04/04 03:33:05;;;;;;;18.03;6.03;;;;;5.80;102241.00;;;;9710104;30;20600;-79
2021/04/04 03:38:09;;;;;;;17.33;5.77;;;;;5.80;102246.00;;;;9686096;30;20192;-78
2021/04/04 03:43:19;;;;;;;19.03;4.97;;;;;5.80;102247.00;;;;9668742;30;20211;-78
2021/04/04 03:48:21;;;;;;;18.17;5.00;;;;;5.80;102232.00;;;;9688268;30;20207;-78
2021/04/04 03:53:26;;;;;;;18.97;4.83;;;;;5.80;102235.00;;;;9656735;30;20231;-78
2021/04/04 03:58:29;;;;;;;13.90;5.37;;;;;5.80;102228.00;;;;9705849;30;20216;-77
2021/04/04 04:03:37;;;;;;;19.80;4.50;;;;;5.80;102230.00;;;;9676959;30;20214;-79
2021/04/04 04:08:40;;;;;;;21.83;5.63;;;;;5.80;102232.00;;;;9664493;30;20731;-78
2021/04/04 04:13:43;;;;;;;16.37;5.40;;;;;5.80;102225.00;;;;9711221;30;20601;-79
2021/04/04 04:18:45;;;;;;;17.83;4.40;;;;;5.90;102234.00;;;;9688291;30;20200;-79
2021/04/04 04:23:47;;;;;;;17.47;5.03;;;;;5.80;102237.00;;;;9697851;30;20253;-78
2021/04/04 04:28:49;;;;;;;17.80;5.03;;;;;5.80;102228.00;;;;9700327;30;20219;-79
2021/04/04 04:33:53;;;;;;;17.63;5.37;;;;;5.80;102223.00;;;;9674657;30;20224;-79
2021/04/04 04:38:56;;;;;;;11.27;4.50;;;;;5.80;102222.00;;;;9699901;30;20207;-79
2021/04/04 04:44:01;;;;;;;27.63;6.10;;;;;5.80;102221.00;;;;9694806;30;20256;-79
2021/04/04 04:49:08;;;;;;;14.80;4.70;;;;;5.80;102217.00;;;;9698710;30;20275;-77
2021/04/04 04:54:09;;;;;;;12.97;4.63;;;;;5.80;102220.00;;;;9684366;30;20277;-79
2021/04/04 04:59:11;;;;;;;15.47;5.43;;;;;5.80;102213.00;;;;9677656;30;20215;-79
2021/04/04 05:04:13;;;;;;;14.20;5.07;;;;;5.90;102218.00;;;;9718411;30;20203;-79
2021/04/04 05:09:17;;;;;;;14.93;5.00;;;;;5.90;102221.00;;;;9708755;30;20743;-79
2021/04/04 05:14:18;;;;;;;14.70;4.70;;;;;5.90;102215.00;;;;9691655;30;20271;-78
2021/04/04 05:19:21;;;;;;;15.80;4.50;;;;;5.90;102226.00;;;;9689325;30;20269;-79
2021/04/04 05:24:24;;;;;;;21.07;5.17;;;;;5.90;102220.00;;;;9711130;30;20231;-79
2021/04/04 05:29:25;;;;;;;17.37;5.50;;;;;5.90;102229.00;;;;9689631;30;20203;-79
2021/04/04 05:34:29;;;;;;;16.33;6.00;;;;;6.00;102229.00;;;;9695848;30;20231;-78
2021/04/04 05:39:33;;;;;;;13.03;5.83;;;;;6.00;102229.00;;;;9704805;30;20212;-79
2021/04/04 05:44:57;;;;;;;12.70;5.50;;;;;6.00;102238.00;;;;9705891;30;20262;-78
2021/04/04 05:50:08;;;;;;;15.63;5.87;;;;;6.00;102224.00;;;;9710357;30;20208;-78
2021/04/04 05:55:22;;;;;;;16.73;5.80;;;;;6.10;102231.00;;;;9699749;30;20203;-78
2021/04/04 06:00:30;;;;;;;21.20;5.47;;;;;6.20;102226.00;;;;9694677;30;20212;-79
2021/04/04 06:05:59;;;;;;;15.57;5.20;;;;;6.20;102230.00;;;;9710873;30;20196;-78
2021/04/04 06:11:25;;;;;;;21.10;6.33;;;;;6.30;102225.00;;;;9711234;30;20286;-79
2021/04/04 06:16:33;;;;;;;14.30;5.77;;;;;6.40;102225.00;;;;9704515;30;20210;-78
2021/04/04 06:22:16;;;;;;;14.43;5.80;;;;;6.50;102226.00;;;;9685967;30;20564;-79
2021/04/04 06:27:35;;;;;;;14.77;6.13;;;;;6.60;102226.00;;;;9658352;30;20231;-79
2021/04/04 06:33:00;;;;;;;22.00;6.13;;;;;6.80;102208.00;;;;9695355;30;20231;-79
2021/04/04 06:38:35;;;;;;;18.10;6.37;;;;;6.90;102213.00;;;;9682766;30;20211;-79
2021/04/04 06:43:46;;;;;;;17.33;6.50;;;;;7.00;102216.00;;;;9687760;30;20200;-79
2021/04/04 06:49:09;;;;;;;12.90;6.70;;;;;7.10;102217.00;;;;9673524;30;20281;-79
2021/04/04 06:54:22;;;;;;;19.93;7.97;;;;;7.20;102219.00;;;;9659724;30;20220;-79
2021/04/04 06:59:50;;;;;;;16.33;7.33;;;;;7.30;102216.00;;;;9703545;30;20201;-78
2021/04/04 07:04:59;;;;;;;15.53;7.50;;;;;7.50;102218.00;;;;9669975;30;20203;-79
2021/04/04 07:10:26;;;;;;;20.53;8.53;;;;;7.60;102213.00;;;;9676633;30;20227;-79
2021/04/04 07:16:06;;;;;;;16.30;8.10;;;;;7.80;102208.00;;;;9696410;30;20231;-79
2021/04/04 07:21:26;;;;;;;23.03;8.80;;;;;7.90;102211.00;;;;9692619;30;20211;-79
2021/04/04 07:26:53;;;;;;;31.27;9.13;;;;;8.00;102216.00;;;;9696242;30;20258;-79
2021/04/04 07:32:02;;;;;;;23.83;8.17;;;;;8.10;102209.00;;;;9685963;30;20298;-77
2021/04/04 07:37:12;;;;;;;19.37;9.10;;;;;8.20;102208.00;;;;9686604;30;20214;-78
2021/04/04 07:42:44;;;;;;;20.17;8.60;;;;;8.30;102207.00;;;;9710703;30;20199;-78
2021/04/04 07:47:49;;;;;;;17.60;8.47;;;;;8.40;102209.00;;;;9670601;30;20208;-79
2021/04/04 07:53:21;;;;;;;19.73;8.50;;;;;8.70;102204.00;;;;9707065;30;20220;-78
2021/04/04 07:58:44;;;;;;;27.83;11.63;;;;;8.80;102203.00;;;;9675108;30;20216;-79
2021/04/04 08:03:55;;;;;;;23.83;11.33;;;;;9.00;102197.00;;;;9685338;30;20210;-79
2021/04/04 08:09:06;;;;;;;28.53;10.73;;;;;9.20;102203.00;;;;9712334;30;20203;-79
2021/04/04 08:14:12;;;;;;;27.37;12.63;;;;;9.30;102203.00;;;;9697717;30;20286;-79
2021/04/04 08:19:14;;;;;;;21.70;11.13;;;;;9.50;102197.00;;;;9692035;30;20206;-79
2021/04/04 08:24:30;;;;;;;18.70;10.63;;;;;9.70;102201.00;;;;9693137;30;20203;-79
2021/04/04 08:29:46;;;;;;;22.80;11.97;;;;;9.80;102196.00;;;;9689875;30;20224;-79
2021/04/04 08:34:52;;;;;;;22.10;13.27;;;;;9.70;102206.00;;;;9711270;30;20235;-79
2021/04/04 08:40:01;;;;;;;23.00;12.93;;;;;9.70;102205.00;;;;9684599;30;20215;-78
2021/04/04 08:45:07;;;;;;;22.43;13.27;;;;;9.70;102197.00;;;;9704178;30;20199;-79
2021/04/04 08:50:12;;;;;;;27.20;12.73;;;;;9.90;102200.00;;;;9680719;30;20216;-79
2021/04/04 08:55:20;;;;;;;27.63;14.87;;;;;10.00;102204.00;;;;9689869;30;20224;-79
2021/04/04 09:00:26;;;;;;;28.67;16.10;;;;;10.20;102201.00;;;;9662238;30;20261;-79
2021/04/04 09:05:34;;;;;;;24.63;14.20;;;;;10.20;102212.00;;;;9715017;30;20218;-79
2021/04/04 09:10:38;;;;;;;28.87;13.60;;;;;10.10;102203.00;;;;9698301;30;20295;-79
2021/04/04 09:15:53;;;;;;;23.17;12.67;;;;;10.30;102186.00;;;;9679070;30;20216;-79
2021/04/04 09:21:07;;;;;;;26.07;15.00;;;;;10.60;102188.00;;;;9703144;30;20203;-78
2021/04/04 09:26:09;;;;;;;21.80;13.37;;;;;10.80;102189.00;;;;9689761;30;20228;-79
2021/04/04 09:31:28;;;;;;;27.03;14.80;;;;;10.80;102177.00;;;;9691294;30;20208;-79
2021/04/04 09:36:50;;;;;;;26.80;15.73;;;;;11.00;102170.00;;;;9684209;30;20239;-79
2021/04/04 09:41:54;;;;;;;25.27;15.07;;;;;11.00;102169.00;;;;9687856;30;20707;-79
2021/04/04 09:46:59;;;;;;;21.90;14.07;;;;;10.70;102165.00;;;;9679184;30;20211;-79
2021/04/04 09:52:21;;;;;;;23.33;14.67;;;;;10.60;102167.00;;;;9705928;30;20241;-78
2021/04/04 09:57:24;;;;;;;26.53;15.63;;;;;10.90;102171.00;;;;9692266;30;20290;-79
2021/04/04 10:02:34;;;;;;;26.60;15.53;;;;;11.50;102165.00;;;;9691077;30;20203;-79
2021/04/04 10:07:35;;;;;;;23.77;15.03;;;;;11.60;102156.00;;;;9714226;30;20203;-79
2021/04/04 10:12:57;;;;;;;30.77;16.70;;;;;11.70;102152.00;;;;9689522;30;20554;-79
2021/04/04 10:17:59;;;;;;;24.33;15.67;;;;;11.90;102156.00;;;;9693423;30;20207;-79
2021/04/04 10:23:04;;;;;;;28.53;15.17;;;;;12.30;102148.00;;;;9718177;30;20207;-79
2021/04/04 10:28:08;;;;;;;24.90;16.57;;;;;12.80;102136.00;;;;9692627;30;20230;-79
2021/04/04 10:33:19;;;;;;;26.10;15.10;;;;;13.00;102138.00;;;;9690629;30;20231;-77
2021/04/04 10:38:25;;;;;;;25.60;15.60;;;;;13.30;102134.00;;;;9653816;30;20211;-78
2021/04/04 10:43:42;;;;;;;26.07;16.83;;;;;13.30;102134.00;;;;9687835;30;20262;-77
2021/04/04 10:48:46;;;;;;;30.47;17.03;;;;;13.20;102133.00;;;;9680657;30;20620;-77
2021/04/04 10:53:48;;;;;;;26.93;15.53;;;;;13.50;102114.00;;;;9704568;30;20219;-77
2021/04/04 10:58:51;;;;;;;26.23;18.13;;;;;13.50;102113.00;;;;9690958;30;20211;-77
2021/04/04 11:03:53;;;;;;;30.17;18.30;;;;;13.20;102098.00;;;;9714199;30;20283;-77
2021/04/04 11:08:55;;;;;;;25.07;18.40;;;;;13.30;102089.00;;;;9699717;30;20219;-76
2021/04/04 11:14:00;;;;;;;31.87;19.90;;;;;12.90;102084.00;;;;9694161;30;20217;-78
2021/04/04 11:19:07;;;;;;;31.03;20.03;;;;;12.90;102080.00;;;;9680144;30;20243;-77
2021/04/04 11:24:16;;;;;;;29.43;19.33;;;;;12.80;102074.00;;;;9702258;30;20216;-77
2021/04/04 11:29:27;;;;;;;37.80;20.87;;;;;12.90;102066.00;;;;9713897;30;20261;-77
2021/04/04 11:34:34;;;;;;;34.70;22.23;;;;;12.50;102065.00;;;;9712049;30;20298;-78
2021/04/04 11:39:36;;;;;;;30.23;20.33;;;;;12.20;102063.00;;;;9682573;30;20208;-77
2021/04/04 11:44:39;;;;;;;39.27;25.90;;;;;12.00;102066.00;;;;9698193;30;20255;-78
2021/04/04 11:49:53;;;;;;;35.70;25.00;;;;;12.20;102066.00;;;;9704805;30;20203;-77
2021/04/04 11:54:56;;;;;;;36.30;26.07;;;;;12.30;102054.00;;;;9642474;30;20217;-78
2021/04/04 12:00:02;;;;;;;43.03;27.57;;;;;12.50;102059.00;;;;9700579;30;20211;-77
2021/04/04 12:05:15;;;;;;;40.10;25.47;;;;;12.70;102057.00;;;;9692561;30;20200;-77
2021/04/04 12:10:18;;;;;;;36.87;26.97;;;;;12.80;102035.00;;;;9726440;30;20295;-78
2021/04/04 12:15:22;;;;;;;31.67;22.97;;;;;12.40;102041.00;;;;9659582;30;20288;-77
2021/04/04 12:20:29;;;;;;;36.70;26.27;;;;;12.40;102043.00;;;;9657223;30;20223;-77
2021/04/04 12:25:31;;;;;;;33.33;20.40;;;;;12.50;102028.00;;;;9673819;30;20893;-77
2021/04/04 12:30:37;;;;;;;35.57;21.93;;;;;12.50;102022.00;;;;9684809;30;20286;-77
2021/04/04 12:35:52;;;;;;;31.50;21.57;;;;;12.80;101999.00;;;;9698110;30;20293;-78
2021/04/04 12:40:56;;;;;;;29.37;20.10;;;;;12.70;101994.00;;;;9674328;30;20207;-77
2021/04/04 12:45:57;;;;;;;25.50;17.67;;;;;13.10;101996.00;;;;9682509;30;20207;-78
2021/04/04 12:51:02;;;;;;;23.63;13.20;;;;;13.40;101973.00;;;;9658645;30;20226;-78
2021/04/04 12:56:04;;;;;;;25.53;12.50;;;;;13.60;101974.00;;;;9686828;30;20306;-78
2021/04/04 13:01:06;;;;;;;20.50;10.97;;;;;14.30;101956.00;;;;9678918;30;20218;-78
2021/04/04 13:06:08;;;;;;;15.93;10.00;;;;;15.00;101956.00;;;;9683650;30;20199;-78
2021/04/04 13:11:19;;;;;;;15.57;10.50;;;;;15.00;101950.00;;;;9687664;30;20223;-78
2021/04/04 13:16:26;;;;;;;15.60;10.33;;;;;15.80;101935.00;;;;9676041;30;20266;-77
2021/04/04 13:21:33;;;;;;;18.43;10.07;;;;;16.40;101921.00;;;;9723289;30;20203;-78
2021/04/04 13:26:36;;;;;;;18.00;10.03;;;;;16.30;101924.00;;;;9677641;30;20254;-78
2021/04/04 13:31:38;;;;;;;15.43;8.60;;;;;15.70;101912.00;;;;9696545;30;20223;-78
2021/04/04 13:36:46;;;;;;;13.83;7.93;;;;;15.80;101907.00;;;;9694337;30;20223;-78
2021/04/04 13:41:49;;;;;;;12.83;8.13;;;;;16.10;101888.00;;;;9687835;30;20232;-79
2021/04/04 13:46:52;;;;;;;17.20;7.53;;;;;15.90;101891.00;;;;9696653;30;20204;-78
2021/04/04 13:52:14;;;;;;;17.90;8.07;;;;;14.30;101891.00;;;;9725297;30;20238;-78
2021/04/04 13:57:39;;;;;;;15.10;7.20;;;;;15.80;101877.00;;;;9710405;30;20207;-78
2021/04/04 14:02:42;;;;;;;13.30;6.70;;;;;18.80;101846.00;;;;9663983;30;20278;-78
2021/04/04 14:07:43;;;;;;;11.53;6.97;;;;;21.10;101857.00;;;;9659329;30;20235;-77
2021/04/04 14:12:46;;;;;;;12.57;6.70;;;;;19.90;101865.00;;;;9704322;30;20664;-78
2021/04/04 14:17:47;;;;;;;12.40;6.40;;;;;19.00;101850.00;;;;9694340;30;20200;-78
2021/04/04 14:23:07;;;;;;;13.37;6.43;;;;;17.50;101832.00;;;;9683766;30;20199;-78
2021/04/04 14:28:08;;;;;;;10.90;5.70;;;;;16.60;101812.00;;;;9708975;30;20230;-78
2021/04/04 14:33:10;;;;;;;13.27;5.47;;;;;15.70;101808.00;;;;9695369;30;20227;-78
2021/04/04 14:38:11;;;;;;;12.93;5.93;;;;;15.50;101808.00;;;;9672680;30;20213;-77
2021/04/04 14:43:31;;;;;;;8.30;5.10;;;;;18.20;101779.00;;;;9700200;30;20677;-79
2021/04/04 14:48:33;;;;;;;9.90;5.23;;;;;16.10;101771.00;;;;9684112;30;20211;-78
2021/04/04 14:53:37;;;;;;;11.67;5.53;;;;;17.80;101763.00;;;;9701477;30;20222;-78
2021/04/04 14:58:39;;;;;;;12.60;6.93;;;;;19.20;101751.00;;;;9693702;30;20208;-78
2021/04/04 15:03:41;;;;;;;9.27;5.90;;;;;20.80;101742.00;;;;9717635;30;20287;-78
2021/04/04 15:08:43;;;;;;;13.60;6.67;;;;;20.50;101718.00;;;;9684629;30;20573;-78
2021/04/04 15:13:45;;;;;;;14.70;8.90;;;;;21.20;101716.00;;;;9705439;30;20219;-77
2021/04/04 15:18:46;;;;;;;13.47;9.03;;;;;20.10;101727.00;;;;9683559;30;20204;-77
2021/04/04 15:23:50;;;;;;;15.00;10.63;;;;;18.00;101729.00;;;;9686681;30;20213;-78
2021/04/04 15:28:51;;;;;;;20.13;11.63;;;;;16.30;101718.00;;;;9692300;30;20705;-76
2021/04/04 15:33:55;;;;;;;17.83;10.47;;;;;14.40;101720.00;;;;9696524;30;20299;-78
2021/04/04 15:38:56;;;;;;;19.70;11.57;;;;;13.90;101697.00;;;;9663671;30;20212;-78
2021/04/04 15:43:57;;;;;;;16.63;12.73;;;;;13.60;101697.00;;;;9713818;30;20221;-78
2021/04/04 15:48:59;;;;;;;18.77;13.97;;;;;13.30;101694.00;;;;9706157;30;20199;-78
2021/04/04 15:54:00;;;;;;;22.30;13.33;;;;;13.10;101686.00;;;;9716505;30;20223;-78
2021/04/04 15:59:02;;;;;;;21.63;15.33;;;;;13.40;101663.00;;;;9719528;30;20561;-77
2021/04/04 16:04:04;;;;;;;19.37;13.77;;;;;13.20;101665.00;;;;9684921;30;20214;-77
2021/04/04 16:09:06;;;;;;;22.80;14.80;;;;;12.80;101648.00;;;;9678582;30;20267;-77
2021/04/04 16:14:08;;;;;;;23.60;16.20;;;;;12.00;101661.00;;;;9702349;30;20243;-77
2021/04/04 16:19:10;;;;;;;22.87;15.70;;;;;11.90;101661.00;;;;9683052;30;20230;-78
2021/04/04 16:24:11;;;;;;;22.17;15.23;;;;;11.40;101664.00;;;;9708182;30;20211;-78
2021/04/04 16:29:13;;;;;;;22.80;16.23;;;;;11.20;101667.00;;;;9670275;30;20244;-78
2021/04/04 16:34:14;;;;;;;24.37;15.07;;;;;10.90;101660.00;;;;9700710;30;20585;-78
2021/04/04 16:39:15;;;;;;;23.27;14.17;;;;;10.70;101648.00;;;;9668911;30;20215;-78
2021/04/04 16:44:17;;;;;;;22.30;14.20;;;;;10.40;101643.00;;;;9655757;30;20310;-78
2021/04/04 16:49:18;;;;;;;25.20;16.80;;;;;10.30;101652.00;;;;9680911;30;20195;-78
2021/04/04 16:54:20;;;;;;;22.20;16.07;;;;;10.10;101651.00;;;;9710811;30;20242;-78
2021/04/04 16:59:21;;;;;;;21.53;14.50;;;;;9.90;101638.00;;;;9701480;30;20198;-78
2021/04/04 17:04:24;;;;;;;23.53;14.40;;;;;9.90;101612.00;;;;9695192;30;20576;-78
2021/04/04 17:09:26;;;;;;;26.63;15.07;;;;;9.70;101613.00;;;;9668715;30;20247;-78
2021/04/04 17:14:27;;;;;;;26.27;15.27;;;;;9.60;101589.00;;;;9719197;30;20227;-78
2021/04/04 17:19:29;;;;;;;22.17;13.07;;;;;9.60;101585.00;;;;9687515;30;20660;-79
2021/04/04 17:24:30;;;;;;;22.60;13.43;;;;;9.40;101567.00;;;;9690682;30;20236;-78
2021/04/04 17:29:32;;;;;;;18.43;12.53;;;;;9.30;101574.00;;;;9691517;30;20193;-78
2021/04/04 17:34:34;;;;;;;20.83;12.47;;;;;9.10;101591.00;;;;9690390;30;20231;-78
2021/04/04 17:39:38;;;;;;;19.27;10.53;;;;;8.90;101582.00;;;;9700965;30;20214;-78
2021/04/04 17:44:39;;;;;;;17.30;9.80;;;;;8.70;101583.00;;;;9704952;30;20211;-78
2021/04/04 17:49:41;;;;;;;14.80;9.70;;;;;8.50;101576.00;;;;9704577;30;20680;-78
2021/04/04 17:54:43;;;;;;;17.83;9.00;;;;;8.40;101560.00;;;;9725632;30;20696;-78
2021/04/04 17:59:44;;;;;;;16.93;8.73;;;;;8.30;101557.00;;;;9672549;30;20200;-78
2021/04/04 18:04:49;;;;;;;14.80;8.37;;;;;8.20;101550.00;;;;9661503;30;20203;-78
2021/04/04 18:15:11;;;;;;;23.50;9.17;;;;;7.80;101547.00;;;;9689029;30;20219;-78
2021/04/04 18:20:13;;;;;;;17.73;8.07;;;;;7.60;101547.00;;;;9692417;30;20223;-78
2021/04/04 18:25:14;;;;;;;13.80;7.93;;;;;7.40;101542.00;;;;9701344;30;20233;-78
2021/04/04 18:30:21;;;;;;;16.93;8.13;;;;;7.20;101535.00;;;;9706816;30;20208;-78
2021/04/04 18:35:24;;;;;;;15.43;7.97;;;;;7.00;101539.00;;;;9705163;30;20223;-78
2021/04/04 18:40:26;;;;;;;15.10;8.50;;;;;6.90;101541.00;;;;9689139;30;20202;-78
2021/04/04 18:45:28;;;;;;;17.00;8.60;;;;;6.80;101540.00;;;;9682635;30;20227;-78
2021/04/04 18:50:33;;;;;;;18.37;9.53;;;;;6.70;101532.00;;;;9708068;30;21135;-78
2021/04/04 18:55:35;;;;;;;12.37;8.93;;;;;6.60;101530.00;;;;9666792;30;20223;-78
2021/04/04 19:00:36;;;;;;;21.40;9.20;;;;;6.50;101509.00;;;;9655184;30;20204;-77
2021/04/04 19:05:38;;;;;;;17.50;9.07;;;;;6.40;101517.00;;;;9683070;30;20200;-77
2021/04/04 19:10:40;;;;;;;17.57;9.57;;;;;6.30;101487.00;;;;9687099;30;20204;-78
2021/04/04 19:15:42;;;;;;;23.47;10.70;;;;;6.20;101474.00;;;;9662206;30;20255;-78
2021/04/04 19:20:45;;;;;;;21.20;9.73;;;;;6.10;101466.00;;;;9683830;30;20613;-78
2021/04/04 19:25:47;;;;;;;20.80;9.80;;;;;6.10;101464.00;;;;9674162;30;20270;-78
2021/04/04 19:30:49;;;;;;;18.97;9.83;;;;;6.10;101470.00;;;;9718220;30;20294;-78
2021/04/04 19:35:51;;;;;;;19.80;10.33;;;;;6.10;101445.00;;;;9693008;30;20301;-78
2021/04/04 19:40:52;;;;;;;16.70;10.30;;;;;6.00;101433.00;;;;9686563;30;20242;-78
2021/04/04 19:45:53;;;;;;;20.10;9.90;;;;;5.90;101420.00;;;;9691092;30;20207;-78
2021/04/04 19:50:55;;;;;;;23.67;10.70;;;;;5.90;101422.00;;;;9655447;30;20204;-78
2021/04/04 19:55:56;;;;;;;18.80;11.07;;;;;5.80;101424.00;;;;9696790;30;20217;-78
2021/04/04 20:00:58;;;;;;;23.63;12.17;;;;;5.80;101424.00;;;;9655495;30;20220;-78
2021/04/04 20:05:59;;;;;;;21.03;12.60;;;;;5.80;101421.00;;;;9657453;30;20204;-79
2021/04/04 20:11:01;;;;;;;27.27;12.07;;;;;5.80;101427.00;;;;9698607;30;20230;-78
2021/04/04 20:16:03;;;;;;;27.43;13.37;;;;;5.80;101412.00;;;;9691994;30;20239;-79
2021/04/04 20:21:05;;;;;;;25.53;12.10;;;;;5.80;101415.00;;;;9701750;30;20747;-79
2021/04/04 20:26:06;;;;;;;20.17;12.23;;;;;5.90;101400.00;;;;9694198;30;20208;-79
2021/04/04 20:31:08;;;;;;;23.90;11.27;;;;;5.90;101383.00;;;;9689403;30;20207;-79
2021/04/04 20:36:14;;;;;;;24.80;11.80;;;;;5.80;101355.00;;;;9678214;30;20232;-79
2021/04/04 20:41:15;;;;;;;20.53;11.80;;;;;5.80;101362.00;;;;9693404;30;20209;-79
2021/04/04 20:46:16;;;;;;;25.33;12.87;;;;;5.80;101356.00;;;;9681049;30;20254;-79
2021/04/04 20:51:18;;;;;;;22.07;11.97;;;;;5.80;101345.00;;;;9681315;30;20221;-79
2021/04/04 20:56:21;;;;;;;24.87;12.20;;;;;5.80;101324.00;;;;9672705;30;20220;-79
2021/04/04 21:01:27;;;;;;;21.47;11.90;;;;;5.80;101302.00;;;;9697486;30;20199;-79
2021/04/04 21:06:29;;;;;;;20.83;12.47;;;;;5.70;101308.00;;;;9678480;30;20606;-79
2021/04/04 21:11:30;;;;;;;23.80;11.67;;;;;5.70;101298.00;;;;9669345;30;20666;-78
2021/04/04 21:16:33;;;;;;;18.70;11.73;;;;;5.60;101290.00;;;;9667420;30;20673;-78
2021/04/04 21:21:34;;;;;;;20.57;11.97;;;;;5.50;101279.00;;;;9701660;30;20208;-78
2021/04/04 21:26:36;;;;;;;24.53;12.53;;;;;5.50;101280.00;;;;9682670;30;20631;-78
2021/04/04 21:31:37;;;;;;;23.60;11.67;;;;;5.50;101267.00;;;;9649856;30;20208;-79
2021/04/04 21:36:39;;;;;;;22.77;12.30;;;;;5.50;101260.00;;;;9662621;30;20224;-79
2021/04/04 21:41:41;;;;;;;22.23;12.00;;;;;5.50;101246.00;;;;9694380;30;20564;-79
2021/04/04 21:46:42;;;;;;;22.13;11.30;;;;;5.50;101247.00;;;;9681525;30;20266;-79
2021/04/04 21:51:44;;;;;;;27.07;13.70;;;;;5.40;101244.00;;;;9702877;30;20211;-79
2021/04/04 21:56:45;;;;;;;32.10;15.33;;;;;5.40;101253.00;;;;9734296;30;20223;-79
2021/04/04 22:01:47;;;;;;;29.20;15.77;;;;;5.40;101246.00;;;;9689295;30;20207;-78
2021/04/04 22:06:51;;;;;;;29.90;18.00;;;;;5.50;101222.00;;;;9680500;30;20197;-79
2021/04/04 22:11:59;;;;;;;32.97;18.23;;;;;5.50;101211.00;;;;9682743;30;20208;-79
2021/04/04 22:17:10;;;;;;;38.20;20.00;;;;;5.50;101192.00;;;;9702300;30;20228;-79
2021/04/04 22:22:20;;;;;;;33.70;19.70;;;;;5.40;101159.00;;;;9686848;30;20208;-79
2021/04/04 22:27:27;;;;;;;31.03;20.87;;;;;5.40;101152.00;;;;9701297;30;20250;-79
2021/04/04 22:32:28;;;;;;;39.97;20.90;;;;;5.40;101150.00;;;;9706493;30;20223;-79
2021/04/04 22:37:29;;;;;;;38.07;22.63;;;;;5.40;101141.00;;;;9679290;30;20695;-79
2021/04/04 22:42:31;;;;;;;43.77;22.77;;;;;5.50;101118.00;;;;9709030;30;20199;-79
2021/04/04 22:47:32;;;;;;;44.30;24.87;;;;;5.50;101118.00;;;;9697596;30;20207;-79
2021/04/04 22:52:35;;;;;;;30.33;19.87;;;;;5.60;101088.00;;;;9686580;30;20208;-79
2021/04/04 22:57:38;;;;;;;33.00;18.70;;;;;5.70;101113.00;;;;9703381;30;20228;-79
2021/04/04 23:02:41;;;;;;;32.60;20.03;;;;;5.70;101106.00;;;;9701203;30;20207;-79
2021/04/04 23:07:43;;;;;;;30.67;17.97;;;;;5.70;101099.00;;;;9691716;30;20560;-79
2021/04/04 23:12:47;;;;;;;29.60;18.70;;;;;5.60;101085.00;;;;9720114;30;20897;-79
2021/04/04 23:17:49;;;;;;;28.73;18.17;;;;;5.60;101073.00;;;;9715897;30;20253;-78
2021/04/04 23:22:51;;;;;;;36.10;19.37;;;;;5.50;101080.00;;;;9707056;30;20207;-78
2021/04/04 23:27:53;;;;;;;31.73;17.90;;;;;5.50;101065.00;;;;9682095;30;20235;-79
2021/04/04 23:32:55;;;;;;;28.93;16.83;;;;;5.40;101051.00;;;;9680400;30;20223;-78
2021/04/04 23:37:57;;;;;;;28.87;15.73;;;;;5.30;101045.00;;;;9692311;30;20207;-78
2021/04/04 23:42:59;;;;;;;27.53;14.23;;;;;5.20;101043.00;;;;9675329;30;20287;-78
2021/04/04 23:48:00;;;;;;;25.30;15.07;;;;;5.10;101028.00;;;;9700267;30;20230;-78
2021/04/04 23:53:04;;;;;;;24.30;12.67;;;;;5.20;101041.00;;;;9687405;30;20270;-78
2021/04/04 23:58:05;;;;;;;23.80;13.57;;;;;5.20;101013.00;;;;9666185;30;20589;-78
